Weather observations for the past three days for
Sundance Airport
Imperial (Metric)
Date Time (cdt) Wind (mph) Vis. (mi.) Weather Sky Cond. Temperature (ºF) Relative Humidity Wind Chill (°F) Heat Index (°F) Pressure Precipitation (in)
Air Dwpt 6 hour altimeter (in) sea level (mb) 1 hr 3 hr 6 hr
Max. Min.
06 01:15 NE 8 10.00 Overcast OVC037 50 39.2 67% 47 29.92 0.0
06 00:55 NE 10 10.00 Overcast OVC035 50 39.2 67% 46 29.92 0.0
06 00:35 NE 13 10.00 Overcast OVC033 50 37.4 62% 46 29.91 0.0
06 00:15 NE 12 G 17 10.00 Overcast OVC032 50 37.4 62% 46 29.91 0.0
05 23:55 NE 14 G 21 10.00 Overcast OVC032 50 37.4 62% 45 29.91 0.0
05 23:35 NE 12 10.00 Overcast OVC032 50 39.2 67% 46 29.92 0.0
05 23:15 NE 13 G 20 10.00 Overcast OVC031 50 39.2 67% 46 29.92 0.0
05 22:55 NE 20 10.00 Overcast OVC029 50 41 71% 44 29.91 0.0
05 22:35 NE 15 G 24 10.00 Overcast OVC028 50 41 71% 45 29.91 0.0
05 22:15 NE 16 G 25 10.00 Overcast SCT019 BKN024 OVC029 48.2 42.8 82% 43 29.88 0.0
05 21:55 NE 15 G 26 10.00 Overcast OVC018 50 42.8 76% 45 29.88 0.0
05 21:35 N 18 10.00 Overcast OVC017 50 44.6 82% 44 29.89 0.0
05 21:15 N 15 G 22 10.00 Overcast OVC016 50 44.6 82% 45 29.89 0.0
05 20:55 N 16 G 25 10.00 Overcast OVC017 50 44.6 82% 45 29.88 0.0
05 20:35 NE 15 10.00 Overcast OVC017 50 44.6 82% 45 29.87 0.0
05 20:15 N 16 10.00 Overcast OVC017 50 44.6 82% 45 29.87 0.0
05 19:55 N 16 G 24 10.00 Overcast OVC017 50 44.6 82% 45 29.86 0.0
05 19:35 N 15 G 21 10.00 Overcast OVC017 50 44.6 82% 45 29.84 0.0
05 19:15 NE 15 G 23 10.00 Overcast OVC018 51.8 44.6 77% 29.83 0.0
05 18:55 NE 17 G 25 10.00 Overcast OVC019 51.8 42.8 72% 29.83 0.0
05 18:35 NE 21 10.00 Overcast and Breezy OVC020 51.8 42.8 72% 29.83 0.0
05 18:15 N 16 G 23 10.00 Overcast OVC020 51.8 42.8 72% 29.84 0.0
05 17:55 N 18 10.00 Overcast OVC022 51.8 44.6 77% 29.82 0.0
05 17:35 N 17 G 23 10.00 Overcast OVC022 51.8 42.8 72% 29.82 0.0
05 17:15 N 20 10.00 Overcast OVC023 53.6 42.8 67% 29.81 0.0
05 16:55 N 21 10.00 Overcast and Breezy OVC024 53.6 42.8 67% 29.81 0.0
05 16:35 N 22 10.00 Overcast and Breezy OVC023 53.6 42.8 67% 29.78 0.0
05 16:15 N 18 G 28 10.00 Overcast OVC023 55.4 44.6 67% 29.8 0.0
05 15:55 NE 18 G 30 10.00 Overcast OVC021 55.4 44.6 67% 29.78 0.0
05 15:35 N 20 G 29 10.00 Overcast OVC021 55.4 44.6 67% 29.82 0.0
05 15:15 N 18 G 29 10.00 Overcast OVC020 55.4 46.4 72% 29.78 0.0
05 14:55 N 20 G 29 10.00 Overcast OVC019 55.4 46.4 72% 29.78 0.0
05 14:35 N 21 10.00 Overcast and Breezy OVC017 53.6 46.4 77% 29.78 0.0
05 14:15 N 22 10.00 Overcast and Breezy OVC016 53.6 46.4 77% 29.78 0.0
05 13:55 N 17 10.00 Overcast OVC015 55.4 48.2 77% 29.78 0.0
05 13:35 N 21 10.00 Overcast and Breezy OVC016 55.4 48.2 77% 29.77 0.0
05 13:15 N 18 G 25 10.00 Overcast OVC017 57.2 48.2 72% 29.76 0.0
05 12:55 N 21 10.00 Overcast and Breezy OVC017 57.2 48.2 72% 29.75 0.0
05 12:35 N 15 G 24 10.00 Overcast OVC016 57.2 50 77% 29.75 0.0
05 12:15 N 23 10.00 Overcast and Breezy OVC016 55.4 50 82% 29.74 0.0
05 11:55 N 18 G 24 10.00 Overcast OVC014 57.2 50 77% 29.73 0.0
05 11:35 N 20 G 30 10.00 Overcast OVC014 57.2 51.8 82% 29.71 0.0
05 11:15 N 24 G 32 10.00 Overcast and Breezy OVC013 57.2 51.8 82% 29.69 0.0
05 10:55 N 23 G 29 10.00 Overcast and Breezy OVC013 57.2 51.8 82% 29.68 0.0
05 10:35 N 24 G 30 10.00 Overcast and Breezy OVC013 59 53.6 82% 29.66 0.0
05 10:15 N 21 G 29 10.00 Overcast and Breezy OVC013 60.8 55.4 83% 29.65 0.0
05 09:55 N 24 10.00 Overcast and Breezy OVC013 66.2 60.8 83% 29.62 0.0
05 09:35 N 18 10.00 Mostly Cloudy BKN013 68 62.6 83% 29.61 0.0
05 09:15 N 12 10.00 Fair CLR 69.8 64.4 83% 29.59 0.0
05 08:55 N 6 10.00 Fair CLR 69.8 64.4 83% 29.58 0.0
05 08:35 N 5 9.00 Fair CLR 69.8 64.4 83% 29.58 0.0
05 08:15 Calm 10.00 Fair CLR 69.8 62.6 78% 29.57 0.0
05 07:55 SE 6 10.00 Fair CLR 68 62.6 83% 29.56 0.0
05 07:35 Calm 10.00 Fair CLR 68 62.6 83% 29.57 0.0
05 07:15 N 5 10.00 Fair CLR 66.2 62.6 88% 29.55 0.0
05 06:55 NW 8 G 15 10.00 Fair CLR 68 62.6 83% 29.55 0.0
05 06:35 Vrbl 5 G 14 10.00 Fair CLR 69.8 62.6 78% 29.52 0.0
05 06:15 S 14 G 20 10.00 Fair CLR 69.8 62.6 78% 29.5 0.0
05 05:55 SW 13 G 25 10.00 Fair CLR 71.6 62.6 73% 29.5 0.0
05 05:35 S 17 G 25 10.00 Fair CLR 71.6 62.6 73% 29.48 0.0
05 05:15 S 15 G 26 10.00 Fair CLR 71.6 62.6 73% 29.48 0.0
05 04:55 S 20 G 26 10.00 Fair CLR 71.6 62.6 73% 29.48 0.0
05 04:35 S 17 G 29 10.00 Fair CLR 71.6 62.6 73% 29.48 0.0
05 04:15 S 20 G 26 10.00 Fair CLR 71.6 62.6 73% 29.48 0.0
05 03:55 S 18 10.00 Fair CLR 71.6 62.6 73% 29.48 0.0
05 03:35 S 17 G 25 10.00 Fair CLR 71.6 62.6 73% 29.49 0.0
05 03:15 S 18 G 28 10.00 Fair CLR 71.6 62.6 73% 29.5 0.0
05 02:55 S 18 G 26 10.00 Fair CLR 71.6 62.6 73% 29.5 0.0
05 02:35 S 21 G 28 10.00 Fair and Breezy CLR 71.6 62.6 73% 29.5 0.0
05 02:15 S 21 G 29 10.00 Fair and Breezy CLR 71.6 62.6 73% 29.51 0.0
05 01:55 S 18 G 29 10.00 Fair CLR 73.4 62.6 69% 29.52 0.0
05 01:35 S 22 G 31 10.00 Fair and Breezy CLR 73.4 62.6 69% 29.52 0.0
05 01:15 S 22 G 29 10.00 Fair and Breezy CLR 73.4 62.6 69% 29.53 0.0
05 00:55 S 20 G 29 10.00 Fair CLR 73.4 62.6 69% 29.53 0.0
05 00:35 S 22 G 30 10.00 Fair and Breezy CLR 73.4 62.6 69% 29.54 0.0
05 00:15 S 21 G 28 10.00 Fair and Breezy CLR 73.4 62.6 69% 29.54 0.0
04 23:55 S 20 G 28 10.00 Fair CLR 73.4 62.6 69% 29.55 0.0
04 23:35 S 20 10.00 Fair CLR 73.4 62.6 69% 29.55 0.0
04 23:15 S 16 10.00 Fair CLR 73.4 62.6 69% 29.56 0.0
04 22:55 S 18 10.00 Fair CLR 75.2 62.6 65% 77 29.56 0.0
04 22:35 S 17 G 26 10.00 Fair CLR 75.2 62.6 65% 77 29.56 0.0
04 22:15 S 18 G 25 10.00 Fair CLR 75.2 62.6 65% 77 29.56 0.0
04 21:55 S 15 G 22 10.00 Fair CLR 75.2 62.6 65% 77 29.56 0.0
04 21:35 S 21 G 28 10.00 Fair and Breezy CLR 75.2 62.6 65% 77 29.54 0.0
04 21:15 S 18 G 28 10.00 Fair CLR 77 60.8 57% 79 29.54 0.0
04 20:55 S 18 G 28 10.00 Fair CLR 77 60.8 57% 79 29.54 0.0
04 20:35 S 18 G 32 10.00 Fair CLR 78.8 60.8 54% 80 29.54 0.0
04 20:15 S 20 G 29 10.00 Fair CLR 78.8 60.8 54% 80 29.54 0.0
04 19:55 S 23 G 31 10.00 Fair and Breezy CLR 78.8 60.8 54% 80 29.54 0.0
04 19:35 S 18 G 29 10.00 Fair CLR 78.8 60.8 54% 80 29.55 0.0
04 19:15 S 23 G 31 10.00 Fair and Breezy CLR 80.6 60.8 51% 81 29.55 0.0
04 18:55 S 20 G 26 10.00 Fair CLR 80.6 60.8 51% 81 29.56 0.0
04 18:35 S 25 G 35 10.00 Fair and Breezy CLR 82.4 60.8 48% 83 29.56 0.0
04 18:15 S 21 10.00 Fair and Breezy CLR 82.4 59 45% 82 29.56 0.0
04 17:55 S 16 G 30 10.00 Fair CLR 82.4 59 45% 82 29.57 0.0
04 17:35 S 20 G 30 10.00 Fair CLR 82.4 59 45% 82 29.58 0.0
04 17:15 S 21 G 29 10.00 Fair and Breezy CLR 82.4 57.2 42% 82 29.58 0.0
04 16:55 S 21 G 28 10.00 Fair and Breezy CLR 82.4 57.2 42% 82 29.59 0.0
04 16:35 S 22 G 30 10.00 Fair and Breezy CLR 82.4 57.2 42% 82 29.6 0.0
04 16:15 S 23 G 31 10.00 Fair and Breezy CLR 82.4 57.2 42% 82 29.61 0.0
04 15:55 S 24 G 30 10.00 Fair and Breezy CLR 82.4 57.2 42% 82 29.62 0.0
04 15:35 S 17 G 31 10.00 Fair CLR 82.4 55.4 40% 82 29.64 0.0
04 15:15 S 22 G 33 10.00 Fair and Breezy CLR 82.4 55.4 40% 82 29.64 0.0
04 14:35 S 21 G 28 10.00 Fair and Breezy CLR 82.4 53.6 37% 81 29.66 0.0
04 14:15 S 20 G 33 10.00 Fair CLR 80.6 53.6 39% 80 29.67 0.0
04 13:55 S 24 G 31 10.00 Fair and Breezy CLR 80.6 53.6 39% 80 29.67 0.0
04 13:35 S 17 G 30 10.00 Fair CLR 80.6 51.8 37% 80 29.68 0.0
04 13:15 S 22 G 29 10.00 Fair and Breezy CLR 80.6 53.6 39% 80 29.69 0.0
04 12:55 S 26 10.00 Fair and Windy CLR 78.8 53.6 42% 79 29.7 0.0
04 12:35 S 22 G 31 10.00 Fair and Breezy CLR 77 51.8 42% 78 29.71 0.0
04 12:15 S 16 G 29 10.00 Fair CLR 77 51.8 42% 78 29.72 0.0
04 11:55 S 17 G 32 10.00 Fair CLR 77 51.8 42% 78 29.72 0.0
04 11:35 S 24 G 33 10.00 Fair and Breezy CLR 75.2 50 41% 78 29.72 0.0
04 11:15 S 23 G 32 10.00 Fair and Breezy CLR 75.2 50 41% 78 29.72 0.0
04 10:55 S 24 G 35 10.00 Fair and Breezy CLR 73.4 50 44% 29.73 0.0
04 10:35 SW 18 G 32 10.00 Fair CLR 73.4 50 44% 29.73 0.0
04 10:15 S 24 G 35 10.00 Fair and Breezy CLR 71.6 48.2 44% 29.73 0.0
04 09:55 S 20 G 31 10.00 Fair CLR 71.6 48.2 44% 29.73 0.0
04 09:35 S 22 G 31 10.00 Fair and Breezy CLR 69.8 48.2 46% 29.74 0.0
04 09:15 S 25 G 32 10.00 Fair and Breezy CLR 68 48.2 49% 29.74 0.0
04 08:55 S 23 G 33 10.00 Fair and Breezy CLR 68 48.2 49% 29.74 0.0
04 08:35 S 25 G 31 10.00 Fair and Breezy CLR 68 48.2 49% 29.74 0.0
04 08:15 S 22 G 31 10.00 Fair and Breezy CLR 66.2 48.2 52% 29.75 0.0
04 07:55 S 23 G 31 10.00 Fair and Breezy CLR 64.4 48.2 56% 29.75 0.0
04 07:35 S 23 G 29 10.00 Fair and Breezy CLR 64.4 46.4 52% 29.75 0.0
04 07:15 S 22 10.00 Fair and Breezy CLR 62.6 46.4 56% 29.74 0.0
04 06:55 S 20 10.00 Fair CLR 62.6 46.4 56% 29.75 0.0
04 06:35 S 21 G 28 10.00 Fair and Breezy CLR 62.6 46.4 56% 29.75 0.0
04 06:15 S 23 G 29 10.00 Fair and Breezy CLR 62.6 46.4 56% 29.75 0.0
04 05:55 S 22 G 28 10.00 Fair and Breezy CLR 62.6 44.6 52% 29.77 0.0
04 05:35 S 20 G 28 10.00 Fair CLR 64.4 44.6 49% 29.77 0.0
04 05:15 S 21 10.00 Fair and Breezy CLR 64.4 44.6 49% 29.77 0.0
04 04:55 S 20 G 30 10.00 Fair CLR 64.4 44.6 49% 29.77 0.0
04 04:35 S 20 G 29 10.00 Fair CLR 64.4 44.6 49% 29.78 0.0
04 04:15 S 22 G 30 10.00 Fair and Breezy CLR 66.2 44.6 46% 29.78 0.0
04 03:55 S 22 G 35 10.00 Fair and Breezy CLR 66.2 42.8 43% 29.78 0.0
04 03:35 S 22 G 30 10.00 Fair and Breezy CLR 66.2 42.8 43% 29.79 0.0
04 03:15 S 20 G 28 10.00 Fair CLR 66.2 42.8 43% 29.79 0.0
04 02:55 S 20 G 26 10.00 Fair CLR 66.2 42.8 43% 29.8 0.0
04 02:35 S 22 10.00 Fair and Breezy CLR 66.2 42.8 43% 29.81 0.0
04 02:15 S 18 G 26 10.00 Fair CLR 68 42.8 40% 29.81 0.0
04 01:55 S 18 G 26 10.00 Fair CLR 66.2 42.8 43% 29.82 0.0
04 01:35 S 20 G 26 10.00 Fair CLR 68 42.8 40% 29.83 0.0
04 01:15 S 18 G 26 10.00 Fair CLR 68 41 38% 29.84 0.0
04 00:35 S 17 G 25 10.00 Fair CLR 68 41 38% 29.85 0.0
04 00:15 S 21 G 26 10.00 Fair and Breezy CLR 69.8 42.8 38% 29.85 0.0
03 23:55 S 21 G 28 10.00 Fair and Breezy CLR 69.8 42.8 38% 29.86 0.0
03 23:35 S 20 G 26 10.00 Fair CLR 69.8 41 35% 29.86 0.0
03 23:15 S 20 10.00 Fair CLR 69.8 41 35% 29.86 0.0
03 22:55 S 20 G 26 10.00 Fair CLR 71.6 41 33% 29.87 0.0
03 22:35 S 18 G 24 10.00 Fair CLR 71.6 41 33% 29.87 0.0
03 22:15 S 21 10.00 Fair and Breezy CLR 71.6 41 33% 29.87 0.0
03 21:55 S 16 G 28 10.00 Fair CLR 71.6 41 33% 29.87 0.0
03 21:35 S 18 G 29 10.00 Fair CLR 73.4 41 31% 29.87 0.0
03 21:15 S 18 G 25 10.00 Fair CLR 73.4 41 31% 29.86 0.0
03 20:55 S 16 10.00 Fair CLR 73.4 41 31% 29.86 0.0
03 20:35 S 15 G 22 10.00 Fair CLR 75.2 41 29% 77 29.86 0.0
03 20:15 S 17 10.00 Fair CLR 77 39.2 26% 77 29.85 0.0
03 19:55 S 15 G 22 10.00 Fair CLR 77 37.4 24% 77 29.86 0.0
03 19:35 S 17 G 23 10.00 Fair CLR 78.8 37.4 23% 78 29.86 0.0
03 19:15 S 20 G 32 10.00 Fair CLR 80.6 35.6 20% 79 29.86 0.0
03 18:55 S 22 G 30 10.00 Fair and Breezy CLR 82.4 35.6 19% 80 29.87 0.0
03 18:35 SW 18 G 29 10.00 Fair CLR 82.4 35.6 19% 80 29.87 0.0
03 18:15 S 25 10.00 Fair and Breezy CLR 82.4 35.6 19% 80 29.88 0.0
03 17:55 S 22 G 32 10.00 Fair and Breezy CLR 82.4 35.6 19% 80 29.88 0.0
03 17:35 S 24 G 30 9.00 Fair and Breezy CLR 84.2 35.6 18% 81 29.88 0.0
03 17:15 S 24 G 31 9.00 Fair and Breezy CLR 84.2 35.6 18% 81 29.89 0.0
03 16:55 SW 18 G 31 10.00 Fair CLR 84.2 37.4 19% 81 29.89 0.0
03 16:35 SW 21 G 29 10.00 Fair and Breezy CLR 84.2 37.4 19% 81 29.9 0.0
03 16:15 SW 18 G 36 10.00 Fair CLR 84.2 37.4 19% 81 29.91 0.0
03 15:55 SW 23 G 30 10.00 Fair and Breezy CLR 84.2 35.6 18% 81 29.92 0.0
03 15:35 SW 18 G 26 10.00 Fair CLR 84.2 35.6 18% 81 29.93 0.0
03 15:15 SW 23 G 32 10.00 Fair and Breezy CLR 84.2 35.6 18% 81 29.94 0.0
03 14:55 SW 20 10.00 Fair CLR 84.2 35.6 18% 81 29.95 0.0
03 14:35 SW 14 G 28 10.00 Fair CLR 84.2 35.6 18% 81 29.96 0.0
03 14:15 SW 14 G 28 10.00 Fair CLR 84.2 37.4 19% 81 29.97 0.0
03 13:55 SW 18 G 26 10.00 Fair CLR 84.2 33.8 16% 81 29.98 0.0
03 13:35 SW 22 10.00 Fair and Breezy CLR 84.2 35.6 18% 81 29.99 0.0
03 13:15 SW 22 G 30 10.00 Fair and Breezy CLR 84.2 37.4 19% 81 30 0.0
03 12:55 SW 15 G 24 10.00 Fair CLR 82.4 37.4 20% 80 30.01 0.0
03 12:35 SW 14 G 22 10.00 Fair CLR 82.4 41 23% 80 30.01 0.0
03 12:15 SW 14 10.00 Fair CLR 82.4 42.8 25% 80 30.02 0.0
03 11:55 SW 15 10.00 Fair CLR 80.6 42.8 26% 79 30.03 0.0
03 11:35 SW 14 10.00 Fair CLR 78.8 42.8 28% 78 30.03 0.0
03 11:15 SW 15 10.00 Fair CLR 77 42.8 30% 78 30.03 0.0
03 10:55 SW 14 10.00 Fair CLR 75.2 42.8 31% 77 30.03 0.0
03 10:35 SW 13 10.00 Fair CLR 73.4 42.8 33% 30.04 0.0
03 10:15 SW 12 10.00 Fair CLR 71.6 44.6 38% 30.04 0.0
03 09:55 SW 12 10.00 Fair CLR 69.8 44.6 40% 30.04 0.0
03 09:35 SW 12 10.00 Fair CLR 66.2 44.6 46% 30.04 0.0
03 09:15 SW 15 10.00 Fair CLR 64.4 44.6 49% 30.04 0.0
03 08:55 SW 13 G 18 10.00 Fair CLR 64.4 44.6 49% 30.04 0.0
03 08:35 SW 14 10.00 Fair CLR 60.8 44.6 55% 30.04 0.0
03 08:15 SW 9 G 15 10.00 Fair CLR 59 46.4 63% 30.04 0.0
03 07:55 SW 10 10.00 Fair CLR 57.2 46.4 67% 30.04 0.0
03 07:35 S 10 10.00 Fair CLR 55.4 46.4 72% 30.03 0.0
03 07:15 S 9 10.00 Fair CLR 53.6 46.4 77% 30.03 0.0
03 06:55 S 7 10.00 Fair CLR 53.6 46.4 77% 30.02 0.0
03 06:35 S 9 10.00 Fair CLR 53.6 46.4 77% 30.02 0.0
03 06:15 S 9 10.00 Fair CLR 53.6 46.4 77% 30.02 0.0
03 05:55 S 9 10.00 Fair CLR 53.6 46.4 77% 30.02 0.0
03 05:35 S 8 10.00 Fair CLR 55.4 44.6 67% 30.03 0.0
03 05:15 S 9 10.00 Fair CLR 55.4 44.6 67% 30.04 0.0
03 04:55 S 9 10.00 Fair CLR 55.4 44.6 67% 30.04 0.0
03 04:35 SE 9 10.00 Fair CLR 57.2 44.6 63% 30.05 0.0
03 04:15 SE 9 10.00 Fair CLR 57.2 44.6 63% 30.05 0.0
03 03:55 SE 8 10.00 Fair CLR 57.2 44.6 63% 30.06 0.0
03 03:35 SE 10 10.00 Fair CLR 57.2 44.6 63% 30.06 0.0
03 03:15 SE 6 10.00 Fair CLR 57.2 44.6 63% 30.07 0.0
03 02:55 SE 9 10.00 Fair CLR 57.2 42.8 59% 30.07 0.0
03 02:35 SE 9 10.00 Fair CLR 59 42.8 55% 30.08 0.0
03 02:15 SE 7 10.00 Fair CLR 59 41 51% 30.09 0.0
03 01:55 SE 7 10.00 Fair CLR 59 41 51% 30.09 0.0
03 01:35 SE 9 10.00 Fair CLR 59 41 51% 30.1 0.0
Date Time (cdt) Wind (mph) Vis. (mi.) Weather Sky Cond. Air Dwpt Max. Min. Relative Humidity Wind Chill (°F) Heat Index (°F) altimeter (in) sea level (mb) 1 hr 3 hr 6 hr
6 hour
Temperature (ºF) Pressure Precipitation (in)